sensor_id;sensor_type;location;lat;lon;timestamp;pressure;altitude;pressure_sealevel;temperature;humidity
61014;BME280;46899;47.542;19.082;2023-08-20T00:02:28;100743.34;;;20.08;100.00
61014;BME280;46899;47.542;19.082;2023-08-20T00:05:34;100749.81;;;20.04;100.00
61014;BME280;46899;47.542;19.082;2023-08-20T00:08:36;100743.03;;;20.00;100.00
61014;BME280;46899;47.542;19.082;2023-08-20T00:11:39;100738.78;;;19.98;100.00
61014;BME280;46899;47.542;19.082;2023-08-20T00:14:55;100736.47;;;19.93;100.00
61014;BME280;46899;47.542;19.082;2023-08-20T00:17:59;100738.69;;;19.99;100.00
61014;BME280;46899;47.542;19.082;2023-08-20T00:21:01;100736.56;;;19.92;100.00
61014;BME280;46899;47.542;19.082;2023-08-20T00:24:05;100736.56;;;19.92;100.00
61014;BME280;46899;47.542;19.082;2023-08-20T00:27:07;100736.03;;;19.87;100.00
61014;BME280;46899;47.542;19.082;2023-08-20T00:30:10;100736.34;;;19.82;100.00
61014;BME280;46899;47.542;19.082;2023-08-20T00:33:13;100738.97;;;19.82;100.00
61014;BME280;46899;47.542;19.082;2023-08-20T00:36:16;100735.78;;;19.77;100.00
61014;BME280;46899;47.542;19.082;2023-08-20T00:39:18;100736.00;;;19.74;100.00
61014;BME280;46899;47.542;19.082;2023-08-20T00:42:21;100735.25;;;19.72;100.00
61014;BME280;46899;47.542;19.082;2023-08-20T00:45:24;100733.78;;;19.68;100.00
61014;BME280;46899;47.542;19.082;2023-08-20T00:48:26;100725.00;;;19.67;100.00
61014;BME280;46899;47.542;19.082;2023-08-20T00:51:32;100720.69;;;19.66;100.00
61014;BME280;46899;47.542;19.082;2023-08-20T00:54:35;100721.41;;;19.68;100.00
61014;BME280;46899;47.542;19.082;2023-08-20T00:57:37;100732.06;;;19.67;100.00
61014;BME280;46899;47.542;19.082;2023-08-20T01:00:43;100741.03;;;19.64;100.00
61014;BME280;46899;47.542;19.082;2023-08-20T01:03:47;100740.41;;;19.61;100.00
61014;BME280;46899;47.542;19.082;2023-08-20T01:10:46;100736.47;;;19.54;100.00
61014;BME280;46899;47.542;19.082;2023-08-20T01:13:39;100744.41;;;19.54;100.00
61014;BME280;46899;47.542;19.082;2023-08-20T01:16:42;100741.75;;;19.54;100.00
61014;BME280;46899;47.542;19.082;2023-08-20T01:19:45;100748.94;;;19.52;100.00
61014;BME280;46899;47.542;19.082;2023-08-20T01:23:32;100744.69;;;19.49;100.00
61014;BME280;46899;47.542;19.082;2023-08-20T01:29:16;100737.63;;;19.50;100.00
61014;BME280;46899;47.542;19.082;2023-08-20T01:32:19;100743.00;;;19.48;100.00
61014;BME280;46899;47.542;19.082;2023-08-20T01:35:23;100738.75;;;19.46;100.00
61014;BME280;46899;47.542;19.082;2023-08-20T01:38:37;100739.63;;;19.46;100.00
61014;BME280;46899;47.542;19.082;2023-08-20T01:41:40;100740.03;;;19.40;100.00
61014;BME280;46899;47.542;19.082;2023-08-20T01:44:43;100737.56;;;19.37;100.00
61014;BME280;46899;47.542;19.082;2023-08-20T01:47:45;100746.44;;;19.36;100.00
61014;BME280;46899;47.542;19.082;2023-08-20T01:50:49;100741.81;;;19.40;100.00
61014;BME280;46899;47.542;19.082;2023-08-20T01:53:51;100735.87;;;19.36;100.00
61014;BME280;46899;47.542;19.082;2023-08-20T01:56:57;100739.63;;;19.32;100.00
61014;BME280;46899;47.542;19.082;2023-08-20T02:00:00;100746.81;;;19.30;100.00
61014;BME280;46899;47.542;19.082;2023-08-20T02:03:03;100746.69;;;19.32;100.00
61014;BME280;46899;47.542;19.082;2023-08-20T02:06:06;100748.69;;;19.28;100.00
61014;BME280;46899;47.542;19.082;2023-08-20T02:09:10;100745.41;;;19.25;100.00
61014;BME280;46899;47.542;19.082;2023-08-20T02:12:12;100744.66;;;19.23;100.00
61014;BME280;46899;47.542;19.082;2023-08-20T02:15:15;100739.38;;;19.23;100.00
61014;BME280;46899;47.542;19.082;2023-08-20T02:18:18;100731.56;;;19.21;100.00
61014;BME280;46899;47.542;19.082;2023-08-20T02:21:20;100736.19;;;19.18;100.00
61014;BME280;46899;47.542;19.082;2023-08-20T02:24:23;100737.22;;;19.15;100.00
61014;BME280;46899;47.542;19.082;2023-08-20T02:27:25;100726.59;;;19.17;100.00
61014;BME280;46899;47.542;19.082;2023-08-20T02:30:28;100729.00;;;19.20;100.00
61014;BME280;46899;47.542;19.082;2023-08-20T02:33:30;100737.03;;;19.18;100.00
61014;BME280;46899;47.542;19.082;2023-08-20T02:36:33;100733.66;;;19.16;100.00
61014;BME280;46899;47.542;19.082;2023-08-20T02:39:36;100740.91;;;19.12;100.00
61014;BME280;46899;47.542;19.082;2023-08-20T02:42:39;100738.25;;;19.12;100.00
61014;BME280;46899;47.542;19.082;2023-08-20T02:45:42;100741.13;;;19.09;100.00
61014;BME280;46899;47.542;19.082;2023-08-20T02:48:46;100739.81;;;19.02;100.00
61014;BME280;46899;47.542;19.082;2023-08-20T02:51:49;100745.16;;;19.01;100.00
61014;BME280;46899;47.542;19.082;2023-08-20T02:54:51;100743.38;;;19.01;100.00
61014;BME280;46899;47.542;19.082;2023-08-20T02:57:54;100740.56;;;19.04;100.00
61014;BME280;46899;47.542;19.082;2023-08-20T03:00:56;100739.81;;;19.02;100.00
61014;BME280;46899;47.542;19.082;2023-08-20T03:03:59;100741.72;;;19.00;100.00
61014;BME280;46899;47.542;19.082;2023-08-20T03:07:02;100743.56;;;18.98;100.00
61014;BME280;46899;47.542;19.082;2023-08-20T03:10:05;100746.22;;;18.98;100.00
61014;BME280;46899;47.542;19.082;2023-08-20T03:13:08;100737.38;;;18.99;100.00
61014;BME280;46899;47.542;19.082;2023-08-20T03:16:10;100740.84;;;19.00;100.00
61014;BME280;46899;47.542;19.082;2023-08-20T03:19:14;100738.84;;;19.03;100.00
61014;BME280;46899;47.542;19.082;2023-08-20T03:22:17;100742.00;;;18.96;100.00
61014;BME280;46899;47.542;19.082;2023-08-20T03:25:20;100741.34;;;18.92;100.00
61014;BME280;46899;47.542;19.082;2023-08-20T03:28:22;100745.94;;;18.89;100.00
61014;BME280;46899;47.542;19.082;2023-08-20T03:31:25;100744.38;;;18.86;100.00
61014;BME280;46899;47.542;19.082;2023-08-20T03:34:27;100747.00;;;18.86;100.00
61014;BME280;46899;47.542;19.082;2023-08-20T03:37:31;100747.19;;;18.83;100.00
61014;BME280;46899;47.542;19.082;2023-08-20T03:40:34;100754.16;;;18.84;100.00
61014;BME280;46899;47.542;19.082;2023-08-20T03:43:37;100760.38;;;18.83;100.00
61014;BME280;46899;47.542;19.082;2023-08-20T03:46:39;100756.25;;;18.79;100.00
61014;BME280;46899;47.542;19.082;2023-08-20T03:49:42;100744.84;;;18.79;100.00
61014;BME280;46899;47.542;19.082;2023-08-20T03:52:44;100747.38;;;18.80;100.00
61014;BME280;46899;47.542;19.082;2023-08-20T03:55:47;100757.19;;;18.78;100.00
61014;BME280;46899;47.542;19.082;2023-08-20T03:58:50;100756.25;;;18.79;100.00
61014;BME280;46899;47.542;19.082;2023-08-20T04:01:54;100768.28;;;18.83;100.00
61014;BME280;46899;47.542;19.082;2023-08-20T04:04:57;100768.28;;;18.83;100.00
61014;BME280;46899;47.542;19.082;2023-08-20T04:08:02;100769.88;;;18.86;100.00
61014;BME280;46899;47.542;19.082;2023-08-20T04:11:04;100774.12;;;18.88;100.00
61014;BME280;46899;47.542;19.082;2023-08-20T04:14:07;100765.06;;;18.92;100.00
61014;BME280;46899;47.542;19.082;2023-08-20T04:17:10;100767.53;;;18.95;100.00
61014;BME280;46899;47.542;19.082;2023-08-20T04:20:12;100772.59;;;18.98;100.00
61014;BME280;46899;47.542;19.082;2023-08-20T04:23:15;100776.75;;;19.02;100.00
61014;BME280;46899;47.542;19.082;2023-08-20T04:26:18;100774.00;;;19.04;100.00
61014;BME280;46899;47.542;19.082;2023-08-20T04:29:21;100780.88;;;19.06;100.00
61014;BME280;46899;47.542;19.082;2023-08-20T04:32:23;100775.41;;;19.09;100.00
61014;BME280;46899;47.542;19.082;2023-08-20T04:35:26;100783.78;;;19.16;100.00
61014;BME280;46899;47.542;19.082;2023-08-20T04:38:28;100787.72;;;19.23;100.00
61014;BME280;46899;47.542;19.082;2023-08-20T04:41:32;100788.09;;;19.31;100.00
61014;BME280;46899;47.542;19.082;2023-08-20T04:44:34;100792.91;;;19.39;100.00
61014;BME280;46899;47.542;19.082;2023-08-20T04:47:37;100789.87;;;19.45;100.00
61014;BME280;46899;47.542;19.082;2023-08-20T04:50:42;100797.31;;;19.52;100.00
61014;BME280;46899;47.542;19.082;2023-08-20T04:53:44;100796.59;;;19.63;100.00
61014;BME280;46899;47.542;19.082;2023-08-20T04:56:48;100795.91;;;19.73;100.00
61014;BME280;46899;47.542;19.082;2023-08-20T04:59:51;100802.47;;;19.81;100.00
61014;BME280;46899;47.542;19.082;2023-08-20T05:02:54;100800.09;;;19.90;100.00
61014;BME280;46899;47.542;19.082;2023-08-20T05:05:58;100798.63;;;19.99;100.00
61014;BME280;46899;47.542;19.082;2023-08-20T05:09:01;100802.66;;;20.04;100.00
61014;BME280;46899;47.542;19.082;2023-08-20T05:12:04;100802.13;;;20.12;100.00
61014;BME280;46899;47.542;19.082;2023-08-20T05:15:08;100810.37;;;20.20;100.00
61014;BME280;46899;47.542;19.082;2023-08-20T05:18:12;100810.13;;;20.37;100.00
61014;BME280;46899;47.542;19.082;2023-08-20T05:21:14;100802.72;;;20.55;100.00
61014;BME280;46899;47.542;19.082;2023-08-20T05:24:17;100808.44;;;20.74;100.00
61014;BME280;46899;47.542;19.082;2023-08-20T05:27:20;100809.06;;;20.90;100.00
61014;BME280;46899;47.542;19.082;2023-08-20T05:30:24;100803.75;;;21.02;100.00
61014;BME280;46899;47.542;19.082;2023-08-20T05:33:26;100805.44;;;21.16;100.00
61014;BME280;46899;47.542;19.082;2023-08-20T05:36:29;100813.25;;;21.30;100.00
61014;BME280;46899;47.542;19.082;2023-08-20T05:39:36;100816.91;;;21.40;100.00
61014;BME280;46899;47.542;19.082;2023-08-20T05:42:39;100812.53;;;21.52;100.00
61014;BME280;46899;47.542;19.082;2023-08-20T05:45:41;100816.81;;;21.65;100.00
61014;BME280;46899;47.542;19.082;2023-08-20T05:48:44;100820.69;;;21.85;100.00
61014;BME280;46899;47.542;19.082;2023-08-20T05:51:47;100813.63;;;21.97;100.00
61014;BME280;46899;47.542;19.082;2023-08-20T05:54:50;100817.75;;;22.12;100.00
61014;BME280;46899;47.542;19.082;2023-08-20T05:57:52;100822.16;;;22.24;100.00
61014;BME280;46899;47.542;19.082;2023-08-20T06:00:55;100829.91;;;22.38;100.00
61014;BME280;46899;47.542;19.082;2023-08-20T06:03:58;100832.25;;;22.54;100.00
61014;BME280;46899;47.542;19.082;2023-08-20T06:07:01;100826.50;;;22.71;100.00
61014;BME280;46899;47.542;19.082;2023-08-20T06:10:04;100826.87;;;22.88;100.00
61014;BME280;46899;47.542;19.082;2023-08-20T06:13:07;100833.63;;;23.03;100.00
61014;BME280;46899;47.542;19.082;2023-08-20T06:16:10;100839.78;;;23.15;100.00
61014;BME280;46899;47.542;19.082;2023-08-20T06:19:12;100833.75;;;23.35;100.00
61014;BME280;46899;47.542;19.082;2023-08-20T06:22:15;100843.41;;;23.47;100.00
61014;BME280;46899;47.542;19.082;2023-08-20T06:25:17;100840.56;;;23.71;100.00
61014;BME280;46899;47.542;19.082;2023-08-20T06:28:20;100838.88;;;24.02;100.00
61014;BME280;46899;47.542;19.082;2023-08-20T06:31:23;100844.03;;;24.14;100.00
61014;BME280;46899;47.542;19.082;2023-08-20T06:34:25;100844.41;;;24.21;100.00
61014;BME280;46899;47.542;19.082;2023-08-20T06:37:28;100848.34;;;24.26;100.00
61014;BME280;46899;47.542;19.082;2023-08-20T06:40:30;100843.47;;;24.31;100.00
61014;BME280;46899;47.542;19.082;2023-08-20T06:43:33;100853.41;;;24.50;100.00
61014;BME280;46899;47.542;19.082;2023-08-20T06:46:35;100842.97;;;24.79;100.00
61014;BME280;46899;47.542;19.082;2023-08-20T06:49:38;100851.06;;;26.06;97.44
61014;BME280;46899;47.542;19.082;2023-08-20T06:52:40;100864.19;;;30.79;68.30
61014;BME280;46899;47.542;19.082;2023-08-20T06:55:43;100866.34;;;34.76;47.53
61014;BME280;46899;47.542;19.082;2023-08-20T06:58:46;100874.91;;;36.94;40.61
61014;BME280;46899;47.542;19.082;2023-08-20T07:01:48;100860.66;;;39.24;36.24
61014;BME280;46899;47.542;19.082;2023-08-20T07:04:51;100859.03;;;40.12;33.75
61014;BME280;46899;47.542;19.082;2023-08-20T07:07:53;100873.12;;;40.50;33.84
61014;BME280;46899;47.542;19.082;2023-08-20T07:10:56;100866.28;;;42.02;30.12
61014;BME280;46899;47.542;19.082;2023-08-20T07:13:58;100857.22;;;43.01;28.10
61014;BME280;46899;47.542;19.082;2023-08-20T07:17:01;100857.09;;;42.74;28.64
61014;BME280;46899;47.542;19.082;2023-08-20T07:20:05;100845.12;;;42.64;28.97
61014;BME280;46899;47.542;19.082;2023-08-20T07:23:07;100845.94;;;43.41;27.75
61014;BME280;46899;47.542;19.082;2023-08-20T07:26:11;100845.41;;;43.92;28.95
61014;BME280;46899;47.542;19.082;2023-08-20T07:29:17;100848.28;;;44.39;26.46
61014;BME280;46899;47.542;19.082;2023-08-20T07:32:20;100851.44;;;45.00;26.53
61014;BME280;46899;47.542;19.082;2023-08-20T07:35:22;100845.28;;;45.39;26.85
61014;BME280;46899;47.542;19.082;2023-08-20T07:38:25;100841.88;;;44.29;26.21
61014;BME280;46899;47.542;19.082;2023-08-20T07:41:28;100843.25;;;44.31;26.37
61014;BME280;46899;47.542;19.082;2023-08-20T07:44:30;100848.72;;;45.10;25.56
61014;BME280;46899;47.542;19.082;2023-08-20T07:47:33;100847.19;;;44.77;25.22
61014;BME280;46899;47.542;19.082;2023-08-20T07:50:36;100840.25;;;44.01;26.28
61014;BME280;46899;47.542;19.082;2023-08-20T07:53:38;100832.22;;;42.59;28.29
61014;BME280;46899;47.542;19.082;2023-08-20T07:56:41;100834.28;;;40.83;30.65
61014;BME280;46899;47.542;19.082;2023-08-20T07:59:43;100823.84;;;37.29;37.16
61014;BME280;46899;47.542;19.082;2023-08-20T08:02:46;100811.84;;;33.82;45.13
61014;BME280;46899;47.542;19.082;2023-08-20T08:05:49;100815.41;;;32.59;50.88
61014;BME280;46899;47.542;19.082;2023-08-20T08:08:52;100815.69;;;32.26;55.20
61014;BME280;46899;47.542;19.082;2023-08-20T08:11:54;100812.06;;;32.19;52.30
61014;BME280;46899;47.542;19.082;2023-08-20T08:14:57;100821.94;;;32.64;54.22
61014;BME280;46899;47.542;19.082;2023-08-20T08:17:59;100816.63;;;33.15;53.48
61014;BME280;46899;47.542;19.082;2023-08-20T08:21:02;100815.41;;;32.59;53.69
61014;BME280;46899;47.542;19.082;2023-08-20T08:24:04;100813.00;;;32.04;56.01
61014;BME280;46899;47.542;19.082;2023-08-20T08:27:07;100814.09;;;32.17;57.12
61014;BME280;46899;47.542;19.082;2023-08-20T08:30:10;100808.19;;;33.03;53.39
61014;BME280;46899;47.542;19.082;2023-08-20T08:33:12;100814.03;;;34.14;49.44
61014;BME280;46899;47.542;19.082;2023-08-20T08:36:15;100818.97;;;34.87;45.36
61014;BME280;46899;47.542;19.082;2023-08-20T08:39:18;100823.19;;;36.69;41.72
61014;BME280;46899;47.542;19.082;2023-08-20T08:42:22;100823.56;;;39.23;35.26
61014;BME280;46899;47.542;19.082;2023-08-20T08:45:25;100830.13;;;40.92;32.98
61014;BME280;46899;47.542;19.082;2023-08-20T08:48:28;100823.94;;;39.74;33.88
61014;BME280;46899;47.542;19.082;2023-08-20T08:51:31;100816.25;;;36.99;39.87
61014;BME280;46899;47.542;19.082;2023-08-20T08:54:33;100811.53;;;34.61;44.98
61014;BME280;46899;47.542;19.082;2023-08-20T08:57:36;100811.88;;;33.31;48.79
61014;BME280;46899;47.542;19.082;2023-08-20T09:00:39;100812.72;;;32.59;53.96
61014;BME280;46899;47.542;19.082;2023-08-20T09:03:42;100807.09;;;33.33;49.31
61014;BME280;46899;47.542;19.082;2023-08-20T09:06:48;100802.13;;;33.30;49.86
61014;BME280;46899;47.542;19.082;2023-08-20T09:09:57;100806.78;;;32.78;51.74
61014;BME280;46899;47.542;19.082;2023-08-20T09:12:59;100803.25;;;32.77;52.59
61014;BME280;46899;47.542;19.082;2023-08-20T09:16:09;100813.81;;;32.27;54.17
61014;BME280;46899;47.542;19.082;2023-08-20T09:19:12;100813.25;;;32.17;53.61
61014;BME280;46899;47.542;19.082;2023-08-20T09:22:15;100812.16;;;31.81;54.17
61014;BME280;46899;47.542;19.082;2023-08-20T09:25:17;100810.47;;;31.57;57.20
61014;BME280;46899;47.542;19.082;2023-08-20T09:28:20;100821.22;;;31.57;56.05
61014;BME280;46899;47.542;19.082;2023-08-20T09:31:37;100808.38;;;30.97;57.56
61014;BME280;46899;47.542;19.082;2023-08-20T09:34:40;100810.97;;;31.22;57.73
61014;BME280;46899;47.542;19.082;2023-08-20T09:37:43;100801.47;;;31.42;56.92
61014;BME280;46899;47.542;19.082;2023-08-20T09:40:47;100814.09;;;31.72;57.02
61014;BME280;46899;47.542;19.082;2023-08-20T09:43:52;100810.50;;;32.02;53.77
61014;BME280;46899;47.542;19.082;2023-08-20T09:46:57;100804.19;;;31.64;54.77
61014;BME280;46899;47.542;19.082;2023-08-20T09:50:00;100802.38;;;31.26;57.34
61014;BME280;46899;47.542;19.082;2023-08-20T09:56:29;100804.03;;;31.89;54.08
61014;BME280;46899;47.542;19.082;2023-08-20T09:59:32;100802.66;;;31.70;53.58
61014;BME280;46899;47.542;19.082;2023-08-20T10:02:35;100797.56;;;31.75;54.66
61014;BME280;46899;47.542;19.082;2023-08-20T10:05:40;100795.06;;;31.96;53.24
61014;BME280;46899;47.542;19.082;2023-08-20T10:08:43;100795.06;;;31.96;54.50
61014;BME280;46899;47.542;19.082;2023-08-20T10:11:45;100794.06;;;31.97;55.82
61014;BME280;46899;47.542;19.082;2023-08-20T10:14:48;100795.75;;;32.35;52.18
61014;BME280;46899;47.542;19.082;2023-08-20T10:17:51;100787.19;;;32.69;50.92
61014;BME280;46899;47.542;19.082;2023-08-20T10:20:56;100790.25;;;32.29;50.76
61014;BME280;46899;47.542;19.082;2023-08-20T10:24:05;100787.09;;;32.40;50.53
61014;BME280;46899;47.542;19.082;2023-08-20T10:27:08;100783.25;;;32.72;52.44
61014;BME280;46899;47.542;19.082;2023-08-20T10:30:16;100784.47;;;32.69;50.92
61014;BME280;46899;47.542;19.082;2023-08-20T10:33:18;100777.31;;;32.76;51.30
61014;BME280;46899;47.542;19.082;2023-08-20T10:36:22;100784.16;;;32.93;48.87
61014;BME280;46899;47.542;19.082;2023-08-20T10:39:27;100777.53;;;33.40;48.63
61014;BME280;46899;47.542;19.082;2023-08-20T10:42:30;100777.69;;;33.74;44.59
61014;BME280;46899;47.542;19.082;2023-08-20T10:45:32;100772.19;;;34.03;41.00
61014;BME280;46899;47.542;19.082;2023-08-20T10:48:46;100774.34;;;34.14;42.91
61014;BME280;46899;47.542;19.082;2023-08-20T10:51:49;100772.31;;;34.02;45.13
61014;BME280;46899;47.542;19.082;2023-08-20T10:54:53;100770.41;;;33.96;44.92
61014;BME280;46899;47.542;19.082;2023-08-20T10:57:58;100770.84;;;33.99;45.38
61014;BME280;46899;47.542;19.082;2023-08-20T11:01:12;100767.22;;;34.07;45.00
61014;BME280;46899;47.542;19.082;2023-08-20T11:04:17;100766.16;;;33.44;45.80
61014;BME280;46899;47.542;19.082;2023-08-20T11:07:21;100763.69;;;33.49;44.69
61014;BME280;46899;47.542;19.082;2023-08-20T11:10:24;100752.69;;;33.30;45.56
61014;BME280;46899;47.542;19.082;2023-08-20T11:13:28;100756.19;;;33.09;44.70
61014;BME280;46899;47.542;19.082;2023-08-20T11:16:30;100757.56;;;33.05;46.59
61014;BME280;46899;47.542;19.082;2023-08-20T11:19:33;100754.78;;;33.49;46.34
61014;BME280;46899;47.542;19.082;2023-08-20T11:22:35;100756.16;;;33.45;45.56
61014;BME280;46899;47.542;19.082;2023-08-20T11:25:41;100748.63;;;33.76;44.89
61014;BME280;46899;47.542;19.082;2023-08-20T11:28:45;100748.81;;;33.96;44.30
61014;BME280;46899;47.542;19.082;2023-08-20T11:31:48;100747.41;;;34.27;43.45
61014;BME280;46899;47.542;19.082;2023-08-20T11:34:50;100745.28;;;34.23;44.79
61014;BME280;46899;47.542;19.082;2023-08-20T11:37:53;100734.97;;;34.33;44.66
61014;BME280;46899;47.542;19.082;2023-08-20T11:40:55;100739.06;;;34.22;45.04
61014;BME280;46899;47.542;19.082;2023-08-20T11:44:00;100736.00;;;34.32;44.79
61014;BME280;46899;47.542;19.082;2023-08-20T11:47:05;100739.16;;;34.70;44.88
61014;BME280;46899;47.542;19.082;2023-08-20T11:50:15;100728.87;;;34.52;42.70
61014;BME280;46899;47.542;19.082;2023-08-20T11:53:21;100732.22;;;34.54;44.20
61014;BME280;46899;47.542;19.082;2023-08-20T11:56:24;100725.28;;;34.45;44.72
61014;BME280;46899;47.542;19.082;2023-08-20T11:59:28;100726.94;;;34.12;44.94
61014;BME280;46899;47.542;19.082;2023-08-20T12:02:31;100725.47;;;33.88;44.89
61014;BME280;46899;47.542;19.082;2023-08-20T12:05:42;100717.66;;;33.72;47.07
61014;BME280;46899;47.542;19.082;2023-08-20T12:08:44;100717.94;;;33.84;45.32
61014;BME280;46899;47.542;19.082;2023-08-20T12:11:54;100721.56;;;34.18;45.52
61014;BME280;46899;47.542;19.082;2023-08-20T12:14:58;100721.06;;;34.36;43.90
61014;BME280;46899;47.542;19.082;2023-08-20T12:18:04;100724.66;;;34.43;43.05
61014;BME280;46899;47.542;19.082;2023-08-20T12:21:07;100715.19;;;34.60;43.67
61014;BME280;46899;47.542;19.082;2023-08-20T12:24:09;100712.22;;;33.93;43.39
61014;BME280;46899;47.542;19.082;2023-08-20T12:27:12;100713.81;;;33.88;45.22
61014;BME280;46899;47.542;19.082;2023-08-20T12:30:15;100712.81;;;33.67;44.41
61014;BME280;46899;47.542;19.082;2023-08-20T12:33:17;100704.50;;;33.90;43.31
61014;BME280;46899;47.542;19.082;2023-08-20T12:36:20;100702.78;;;33.61;45.90
61014;BME280;46899;47.542;19.082;2023-08-20T12:39:22;100701.56;;;33.64;45.23
61014;BME280;46899;47.542;19.082;2023-08-20T12:42:25;100709.50;;;33.65;44.63
61014;BME280;46899;47.542;19.082;2023-08-20T12:45:27;100700.56;;;33.93;44.34
61014;BME280;46899;47.542;19.082;2023-08-20T12:48:30;100700.78;;;34.19;44.81
61014;BME280;46899;47.542;19.082;2023-08-20T12:51:32;100699.09;;;34.18;43.28
61014;BME280;46899;47.542;19.082;2023-08-20T12:54:35;100690.81;;;33.92;44.73
61014;BME280;46899;47.542;19.082;2023-08-20T12:57:51;100698.84;;;33.85;44.53
61014;BME280;46899;47.542;19.082;2023-08-20T13:00:53;100700.72;;;33.85;43.80
61014;BME280;46899;47.542;19.082;2023-08-20T13:03:56;100699.97;;;33.97;44.66
61014;BME280;46899;47.542;19.082;2023-08-20T13:06:59;100687.56;;;34.30;44.40
61014;BME280;46899;47.542;19.082;2023-08-20T13:10:02;100688.88;;;34.41;42.67
61014;BME280;46899;47.542;19.082;2023-08-20T13:13:05;100693.41;;;34.34;42.97
61014;BME280;46899;47.542;19.082;2023-08-20T13:16:11;100686.25;;;34.20;43.95
61014;BME280;46899;47.542;19.082;2023-08-20T13:19:14;100681.03;;;34.18;44.07
61014;BME280;46899;47.542;19.082;2023-08-20T13:22:16;100679.56;;;34.16;44.06
61014;BME280;46899;47.542;19.082;2023-08-20T13:25:19;100688.56;;;34.02;43.21
61014;BME280;46899;47.542;19.082;2023-08-20T13:28:25;100674.41;;;33.93;42.57
61014;BME280;46899;47.542;19.082;2023-08-20T13:31:27;100681.91;;;33.70;44.11
61014;BME280;46899;47.542;19.082;2023-08-20T13:34:30;100679.62;;;33.73;44.05
61014;BME280;46899;47.542;19.082;2023-08-20T13:37:32;100668.91;;;33.59;43.05
61014;BME280;46899;47.542;19.082;2023-08-20T13:40:35;100673.91;;;33.41;43.44
61014;BME280;46899;47.542;19.082;2023-08-20T13:43:37;100676.22;;;33.44;42.28
61014;BME280;46899;47.542;19.082;2023-08-20T13:46:40;100671.00;;;33.42;42.64
61014;BME280;46899;47.542;19.082;2023-08-20T13:49:42;100673.91;;;33.41;41.96
61014;BME280;46899;47.542;19.082;2023-08-20T13:52:45;100669.31;;;33.35;41.68
61014;BME280;46899;47.542;19.082;2023-08-20T13:55:47;100665.50;;;33.50;42.74
61014;BME280;46899;47.542;19.082;2023-08-20T13:58:50;100663.75;;;33.43;42.66
61014;BME280;46899;47.542;19.082;2023-08-20T14:01:52;100664.16;;;33.40;42.60
61014;BME280;46899;47.542;19.082;2023-08-20T14:04:55;100659.66;;;33.26;43.78
61014;BME280;46899;47.542;19.082;2023-08-20T14:07:58;100653.53;;;33.17;42.16
61014;BME280;46899;47.542;19.082;2023-08-20T14:11:00;100658.81;;;33.25;44.08
61014;BME280;46899;47.542;19.082;2023-08-20T14:14:03;100649.94;;;33.31;44.25
61014;BME280;46899;47.542;19.082;2023-08-20T14:17:06;100645.59;;;33.30;43.55
61014;BME280;46899;47.542;19.082;2023-08-20T14:20:08;100654.00;;;33.21;42.84
61014;BME280;46899;47.542;19.082;2023-08-20T14:23:13;100646.22;;;33.32;44.26
61014;BME280;46899;47.542;19.082;2023-08-20T14:26:15;100638.78;;;33.13;43.30
61014;BME280;46899;47.542;19.082;2023-08-20T14:29:18;100645.50;;;33.02;46.74
61014;BME280;46899;47.542;19.082;2023-08-20T14:32:20;100640.16;;;32.88;44.25
61014;BME280;46899;47.542;19.082;2023-08-20T14:35:23;100643.72;;;32.74;44.07
61014;BME280;46899;47.542;19.082;2023-08-20T14:38:27;100640.34;;;32.72;45.76
61014;BME280;46899;47.542;19.082;2023-08-20T14:41:30;100642.81;;;32.67;46.25
61014;BME280;46899;47.542;19.082;2023-08-20T14:44:32;100639.63;;;32.63;45.04
61014;BME280;46899;47.542;19.082;2023-08-20T14:47:35;100644.47;;;32.53;44.33
61014;BME280;46899;47.542;19.082;2023-08-20T14:50:37;100639.94;;;32.54;44.70
61014;BME280;46899;47.542;19.082;2023-08-20T14:53:40;100634.16;;;32.57;44.65
61014;BME280;46899;47.542;19.082;2023-08-20T14:56:43;100629.22;;;32.60;45.41
61014;BME280;46899;47.542;19.082;2023-08-20T14:59:46;100624.78;;;32.53;45.21
61014;BME280;46899;47.542;19.082;2023-08-20T15:02:48;100627.84;;;32.35;46.94
61014;BME280;46899;47.542;19.082;2023-08-20T15:05:51;100633.91;;;32.52;46.78
61014;BME280;46899;47.542;19.082;2023-08-20T15:08:53;100637.69;;;32.28;47.19
61014;BME280;46899;47.542;19.082;2023-08-20T15:11:56;100632.22;;;32.21;47.60
61014;BME280;46899;47.542;19.082;2023-08-20T15:14:58;100631.00;;;32.09;49.08
61014;BME280;46899;47.542;19.082;2023-08-20T15:18:01;100635.47;;;32.02;48.97
61014;BME280;46899;47.542;19.082;2023-08-20T15:21:04;100635.75;;;32.07;49.16
61014;BME280;46899;47.542;19.082;2023-08-20T15:24:06;100634.53;;;32.10;50.03
61014;BME280;46899;47.542;19.082;2023-08-20T15:27:09;100635.69;;;31.93;49.58
61014;BME280;46899;47.542;19.082;2023-08-20T15:30:11;100631.94;;;32.02;50.74
61014;BME280;46899;47.542;19.082;2023-08-20T15:33:14;100622.06;;;31.80;49.35
61014;BME280;46899;47.542;19.082;2023-08-20T15:36:17;100630.75;;;31.67;50.86
61014;BME280;46899;47.542;19.082;2023-08-20T15:39:19;100629.44;;;31.63;49.54
61014;BME280;46899;47.542;19.082;2023-08-20T15:42:22;100634.88;;;31.55;49.29
61014;BME280;46899;47.542;19.082;2023-08-20T15:45:24;100631.84;;;31.58;49.72
61014;BME280;46899;47.542;19.082;2023-08-20T15:48:27;100634.28;;;31.45;51.43
61014;BME280;46899;47.542;19.082;2023-08-20T15:51:30;100629.94;;;31.44;50.75